sensor_id;sensor_type;location;lat;lon;timestamp;P1;durP1;ratioP1;P2;durP2;ratioP2
34403;SDS011;23116;47.660;9.126;2023-02-28T00:01:55;4.22;;;3.90;;
34403;SDS011;23116;47.660;9.126;2023-02-28T00:04:41;4.78;;;4.20;;
34403;SDS011;23116;47.660;9.126;2023-02-28T00:07:29;3.88;;;3.47;;
34403;SDS011;23116;47.660;9.126;2023-02-28T00:10:21;3.97;;;3.30;;
34403;SDS011;23116;47.660;9.126;2023-02-28T00:13:11;4.57;;;3.67;;
34403;SDS011;23116;47.660;9.126;2023-02-28T00:16:05;4.00;;;3.55;;
34403;SDS011;23116;47.660;9.126;2023-02-28T00:18:55;3.92;;;3.53;;
34403;SDS011;23116;47.660;9.126;2023-02-28T00:21:42;3.88;;;3.58;;
34403;SDS011;23116;47.660;9.126;2023-02-28T00:24:29;4.15;;;3.65;;
34403;SDS011;23116;47.660;9.126;2023-02-28T00:27:16;3.90;;;3.50;;
34403;SDS011;23116;47.660;9.126;2023-02-28T00:30:03;3.65;;;3.30;;
34403;SDS011;23116;47.660;9.126;2023-02-28T00:32:53;3.55;;;3.25;;
34403;SDS011;23116;47.660;9.126;2023-02-28T00:35:40;5.38;;;3.90;;
34403;SDS011;23116;47.660;9.126;2023-02-28T00:38:27;3.50;;;3.20;;
34403;SDS011;23116;47.660;9.126;2023-02-28T00:41:14;3.90;;;3.45;;
34403;SDS011;23116;47.660;9.126;2023-02-28T00:44:01;3.50;;;3.20;;
34403;SDS011;23116;47.660;9.126;2023-02-28T00:46:48;5.53;;;3.42;;
34403;SDS011;23116;47.660;9.126;2023-02-28T00:49:35;3.92;;;3.30;;
34403;SDS011;23116;47.660;9.126;2023-02-28T00:52:21;3.97;;;3.58;;
34403;SDS011;23116;47.660;9.126;2023-02-28T00:55:08;3.72;;;3.08;;
34403;SDS011;23116;47.660;9.126;2023-02-28T00:57:56;3.25;;;2.95;;
34403;SDS011;23116;47.660;9.126;2023-02-28T01:00:42;3.38;;;3.08;;
34403;SDS011;23116;47.660;9.126;2023-02-28T01:03:34;3.53;;;3.10;;
34403;SDS011;23116;47.660;9.126;2023-02-28T01:06:21;4.07;;;3.67;;
34403;SDS011;23116;47.660;9.126;2023-02-28T01:09:08;3.60;;;3.30;;
34403;SDS011;23116;47.660;9.126;2023-02-28T01:11:56;4.57;;;3.65;;
34403;SDS011;23116;47.660;9.126;2023-02-28T01:14:43;3.45;;;3.15;;
34403;SDS011;23116;47.660;9.126;2023-02-28T01:17:30;2.85;;;2.65;;
34403;SDS011;23116;47.660;9.126;2023-02-28T01:20:17;3.28;;;2.97;;
34403;SDS011;23116;47.660;9.126;2023-02-28T01:23:04;2.97;;;2.72;;
34403;SDS011;23116;47.660;9.126;2023-02-28T01:25:51;3.58;;;3.28;;
34403;SDS011;23116;47.660;9.126;2023-02-28T01:28:38;3.42;;;3.08;;
34403;SDS011;23116;47.660;9.126;2023-02-28T01:31:26;3.65;;;3.35;;
34403;SDS011;23116;47.660;9.126;2023-02-28T01:34:12;5.90;;;3.92;;
34403;SDS011;23116;47.660;9.126;2023-02-28T01:36:59;3.47;;;3.17;;
34403;SDS011;23116;47.660;9.126;2023-02-28T01:39:46;3.78;;;3.30;;
34403;SDS011;23116;47.660;9.126;2023-02-28T01:42:33;3.97;;;3.22;;
34403;SDS011;23116;47.660;9.126;2023-02-28T01:48:13;3.78;;;2.90;;
34403;SDS011;23116;47.660;9.126;2023-02-28T01:51:02;3.00;;;2.70;;
34403;SDS011;23116;47.660;9.126;2023-02-28T01:54:08;5.55;;;3.17;;
34403;SDS011;23116;47.660;9.126;2023-02-28T01:57:06;3.50;;;3.20;;
34403;SDS011;23116;47.660;9.126;2023-02-28T02:00:03;3.50;;;3.20;;
34403;SDS011;23116;47.660;9.126;2023-02-28T02:02:59;2.90;;;2.70;;
34403;SDS011;23116;47.660;9.126;2023-02-28T02:05:56;4.60;;;3.30;;
34403;SDS011;23116;47.660;9.126;2023-02-28T02:08:42;3.38;;;3.08;;
34403;SDS011;23116;47.660;9.126;2023-02-28T02:11:29;3.40;;;3.10;;
34403;SDS011;23116;47.660;9.126;2023-02-28T02:14:39;3.45;;;2.95;;
34403;SDS011;23116;47.660;9.126;2023-02-28T02:18:20;3.28;;;2.97;;
34403;SDS011;23116;47.660;9.126;2023-02-28T02:25:16;3.40;;;3.10;;
34403;SDS011;23116;47.660;9.126;2023-02-28T02:28:50;3.40;;;3.10;;
34403;SDS011;23116;47.660;9.126;2023-02-28T02:47:39;2.83;;;2.63;;
34403;SDS011;23116;47.660;9.126;2023-02-28T02:50:31;5.60;;;2.78;;
34403;SDS011;23116;47.660;9.126;2023-02-28T02:53:44;3.13;;;2.83;;
34403;SDS011;23116;47.660;9.126;2023-02-28T02:56:39;3.20;;;2.50;;
34403;SDS011;23116;47.660;9.126;2023-02-28T02:59:27;3.30;;;2.88;;
34403;SDS011;23116;47.660;9.126;2023-02-28T03:02:15;2.60;;;2.40;;
34403;SDS011;23116;47.660;9.126;2023-02-28T03:05:08;3.13;;;2.83;;
34403;SDS011;23116;47.660;9.126;2023-02-28T03:08:21;2.92;;;2.60;;
34403;SDS011;23116;47.660;9.126;2023-02-28T03:11:11;3.78;;;2.55;;
34403;SDS011;23116;47.660;9.126;2023-02-28T03:17:56;3.00;;;2.70;;
34403;SDS011;23116;47.660;9.126;2023-02-28T03:27:29;3.00;;;2.72;;
34403;SDS011;23116;47.660;9.126;2023-02-28T03:30:43;3.40;;;3.13;;
34403;SDS011;23116;47.660;9.126;2023-02-28T03:33:59;3.08;;;2.88;;
34403;SDS011;23116;47.660;9.126;2023-02-28T03:37:14;2.67;;;2.47;;
34403;SDS011;23116;47.660;9.126;2023-02-28T03:40:10;2.67;;;2.47;;
34403;SDS011;23116;47.660;9.126;2023-02-28T03:43:13;3.13;;;2.85;;
34403;SDS011;23116;47.660;9.126;2023-02-28T03:46:08;2.65;;;2.45;;
34403;SDS011;23116;47.660;9.126;2023-02-28T03:51:59;3.42;;;3.10;;
34403;SDS011;23116;47.660;9.126;2023-02-28T03:54:50;3.22;;;2.92;;
34403;SDS011;23116;47.660;9.126;2023-02-28T03:57:58;3.22;;;2.92;;
34403;SDS011;23116;47.660;9.126;2023-02-28T04:04:28;2.35;;;2.15;;
34403;SDS011;23116;47.660;9.126;2023-02-28T04:07:15;2.80;;;2.58;;
34403;SDS011;23116;47.660;9.126;2023-02-28T04:10:04;2.72;;;2.53;;
34403;SDS011;23116;47.660;9.126;2023-02-28T04:12:51;3.63;;;3.17;;
34403;SDS011;23116;47.660;9.126;2023-02-28T04:15:39;3.25;;;3.03;;
34403;SDS011;23116;47.660;9.126;2023-02-28T04:18:26;3.08;;;2.83;;
34403;SDS011;23116;47.660;9.126;2023-02-28T04:21:13;3.10;;;2.80;;
34403;SDS011;23116;47.660;9.126;2023-02-28T04:24:00;3.33;;;2.78;;
34403;SDS011;23116;47.660;9.126;2023-02-28T04:26:50;4.43;;;3.47;;
34403;SDS011;23116;47.660;9.126;2023-02-28T04:29:39;3.17;;;2.83;;
34403;SDS011;23116;47.660;9.126;2023-02-28T04:32:29;2.78;;;2.55;;
34403;SDS011;23116;47.660;9.126;2023-02-28T04:35:16;2.58;;;2.38;;
34403;SDS011;23116;47.660;9.126;2023-02-28T04:38:03;3.20;;;2.35;;
34403;SDS011;23116;47.660;9.126;2023-02-28T04:40:50;3.58;;;3.28;;
34403;SDS011;23116;47.660;9.126;2023-02-28T04:43:37;3.50;;;2.95;;
34403;SDS011;23116;47.660;9.126;2023-02-28T04:46:24;3.20;;;2.90;;
34403;SDS011;23116;47.660;9.126;2023-02-28T04:49:11;3.30;;;2.72;;
34403;SDS011;23116;47.660;9.126;2023-02-28T04:51:58;3.88;;;3.58;;
34403;SDS011;23116;47.660;9.126;2023-02-28T04:54:45;3.75;;;3.35;;
34403;SDS011;23116;47.660;9.126;2023-02-28T04:57:32;3.65;;;3.35;;
34403;SDS011;23116;47.660;9.126;2023-02-28T05:00:19;3.83;;;3.53;;
34403;SDS011;23116;47.660;9.126;2023-02-28T05:03:06;3.35;;;3.05;;
34403;SDS011;23116;47.660;9.126;2023-02-28T05:05:53;3.10;;;2.78;;
34403;SDS011;23116;47.660;9.126;2023-02-28T05:08:39;3.72;;;3.42;;
34403;SDS011;23116;47.660;9.126;2023-02-28T05:11:27;3.58;;;3.28;;
34403;SDS011;23116;47.660;9.126;2023-02-28T05:14:20;4.90;;;4.18;;
34403;SDS011;23116;47.660;9.126;2023-02-28T05:17:07;3.97;;;3.58;;
34403;SDS011;23116;47.660;9.126;2023-02-28T05:19:55;3.53;;;3.22;;
34403;SDS011;23116;47.660;9.126;2023-02-28T05:22:42;3.72;;;3.40;;
34403;SDS011;23116;47.660;9.126;2023-02-28T05:25:30;3.92;;;3.50;;
34403;SDS011;23116;47.660;9.126;2023-02-28T05:28:16;3.40;;;3.10;;
34403;SDS011;23116;47.660;9.126;2023-02-28T05:31:04;3.55;;;3.25;;
34403;SDS011;23116;47.660;9.126;2023-02-28T05:33:51;4.93;;;3.10;;
34403;SDS011;23116;47.660;9.126;2023-02-28T05:36:38;3.50;;;3.20;;
34403;SDS011;23116;47.660;9.126;2023-02-28T05:39:25;3.70;;;3.30;;
34403;SDS011;23116;47.660;9.126;2023-02-28T05:42:12;4.13;;;3.72;;
34403;SDS011;23116;47.660;9.126;2023-02-28T05:44:59;3.40;;;3.10;;
34403;SDS011;23116;47.660;9.126;2023-02-28T05:47:46;3.67;;;3.38;;
34403;SDS011;23116;47.660;9.126;2023-02-28T05:50:33;3.30;;;3.00;;
34403;SDS011;23116;47.660;9.126;2023-02-28T05:53:20;4.72;;;3.67;;
34403;SDS011;23116;47.660;9.126;2023-02-28T05:56:07;3.88;;;3.47;;
34403;SDS011;23116;47.660;9.126;2023-02-28T05:58:54;4.47;;;3.30;;
34403;SDS011;23116;47.660;9.126;2023-02-28T06:01:44;4.65;;;4.15;;
34403;SDS011;23116;47.660;9.126;2023-02-28T06:04:33;3.30;;;3.00;;
34403;SDS011;23116;47.660;9.126;2023-02-28T06:07:20;3.65;;;3.35;;
34403;SDS011;23116;47.660;9.126;2023-02-28T06:10:08;3.20;;;2.90;;
34403;SDS011;23116;47.660;9.126;2023-02-28T06:12:59;3.65;;;3.35;;
34403;SDS011;23116;47.660;9.126;2023-02-28T06:15:47;3.55;;;3.25;;
34403;SDS011;23116;47.660;9.126;2023-02-28T06:18:34;4.18;;;3.78;;
34403;SDS011;23116;47.660;9.126;2023-02-28T06:21:21;3.60;;;3.30;;
34403;SDS011;23116;47.660;9.126;2023-02-28T06:24:08;4.93;;;3.80;;
34403;SDS011;23116;47.660;9.126;2023-02-28T06:26:55;3.28;;;2.83;;
34403;SDS011;23116;47.660;9.126;2023-02-28T06:29:44;3.65;;;3.35;;
34403;SDS011;23116;47.660;9.126;2023-02-28T06:32:30;3.90;;;3.50;;
34403;SDS011;23116;47.660;9.126;2023-02-28T06:35:17;5.03;;;4.10;;
34403;SDS011;23116;47.660;9.126;2023-02-28T06:38:04;5.10;;;3.90;;
34403;SDS011;23116;47.660;9.126;2023-02-28T06:40:55;4.35;;;3.95;;
34403;SDS011;23116;47.660;9.126;2023-02-28T06:43:43;4.82;;;4.13;;
34403;SDS011;23116;47.660;9.126;2023-02-28T06:46:31;4.40;;;4.00;;
34403;SDS011;23116;47.660;9.126;2023-02-28T06:49:18;3.97;;;3.65;;
34403;SDS011;23116;47.660;9.126;2023-02-28T06:52:04;4.35;;;3.92;;
34403;SDS011;23116;47.660;9.126;2023-02-28T06:54:51;4.90;;;4.28;;
34403;SDS011;23116;47.660;9.126;2023-02-28T06:57:45;4.55;;;4.10;;
34403;SDS011;23116;47.660;9.126;2023-02-28T07:00:31;4.75;;;4.05;;
34403;SDS011;23116;47.660;9.126;2023-02-28T07:03:18;4.05;;;3.65;;
34403;SDS011;23116;47.660;9.126;2023-02-28T07:06:05;4.82;;;3.90;;
34403;SDS011;23116;47.660;9.126;2023-02-28T07:08:53;4.47;;;3.55;;
34403;SDS011;23116;47.660;9.126;2023-02-28T07:11:40;4.32;;;3.92;;
34403;SDS011;23116;47.660;9.126;2023-02-28T07:14:28;4.20;;;3.72;;
34403;SDS011;23116;47.660;9.126;2023-02-28T07:17:15;3.85;;;3.40;;
34403;SDS011;23116;47.660;9.126;2023-02-28T07:20:02;3.88;;;3.58;;
34403;SDS011;23116;47.660;9.126;2023-02-28T07:22:51;4.60;;;4.03;;
34403;SDS011;23116;47.660;9.126;2023-02-28T07:25:41;4.10;;;3.70;;
34403;SDS011;23116;47.660;9.126;2023-02-28T07:28:29;4.50;;;4.03;;
34403;SDS011;23116;47.660;9.126;2023-02-28T07:31:16;4.85;;;4.00;;
34403;SDS011;23116;47.660;9.126;2023-02-28T07:34:03;5.32;;;4.28;;
34403;SDS011;23116;47.660;9.126;2023-02-28T07:36:52;4.28;;;3.90;;
34403;SDS011;23116;47.660;9.126;2023-02-28T07:39:39;4.40;;;3.90;;
34403;SDS011;23116;47.660;9.126;2023-02-28T07:42:29;5.75;;;4.28;;
34403;SDS011;23116;47.660;9.126;2023-02-28T07:45:17;5.00;;;4.50;;
34403;SDS011;23116;47.660;9.126;2023-02-28T07:48:04;4.82;;;4.28;;
34403;SDS011;23116;47.660;9.126;2023-02-28T07:50:55;4.80;;;4.40;;
34403;SDS011;23116;47.660;9.126;2023-02-28T07:53:42;5.88;;;4.88;;
34403;SDS011;23116;47.660;9.126;2023-02-28T07:56:30;4.70;;;4.30;;
34403;SDS011;23116;47.660;9.126;2023-02-28T07:59:16;5.55;;;4.63;;
34403;SDS011;23116;47.660;9.126;2023-02-28T08:02:03;5.25;;;4.75;;
34403;SDS011;23116;47.660;9.126;2023-02-28T08:04:50;5.25;;;4.75;;
34403;SDS011;23116;47.660;9.126;2023-02-28T08:07:37;5.50;;;4.95;;
34403;SDS011;23116;47.660;9.126;2023-02-28T08:10:24;6.78;;;5.80;;
34403;SDS011;23116;47.660;9.126;2023-02-28T08:13:11;6.07;;;5.45;;
34403;SDS011;23116;47.660;9.126;2023-02-28T08:15:58;6.90;;;5.18;;
34403;SDS011;23116;47.660;9.126;2023-02-28T08:18:49;5.40;;;4.90;;
34403;SDS011;23116;47.660;9.126;2023-02-28T08:21:39;4.30;;;3.95;;
34403;SDS011;23116;47.660;9.126;2023-02-28T08:24:26;5.47;;;4.97;;
34403;SDS011;23116;47.660;9.126;2023-02-28T08:27:13;4.30;;;3.90;;
34403;SDS011;23116;47.660;9.126;2023-02-28T08:30:00;6.93;;;5.22;;
34403;SDS011;23116;47.660;9.126;2023-02-28T08:32:46;4.82;;;4.35;;
34403;SDS011;23116;47.660;9.126;2023-02-28T08:35:35;5.57;;;5.00;;
34403;SDS011;23116;47.660;9.126;2023-02-28T08:38:22;5.47;;;4.97;;
34403;SDS011;23116;47.660;9.126;2023-02-28T08:41:10;5.13;;;4.28;;
34403;SDS011;23116;47.660;9.126;2023-02-28T08:43:58;4.75;;;4.30;;
34403;SDS011;23116;47.660;9.126;2023-02-28T08:46:45;5.97;;;4.63;;
34403;SDS011;23116;47.660;9.126;2023-02-28T08:49:32;4.28;;;3.88;;
34403;SDS011;23116;47.660;9.126;2023-02-28T08:52:19;6.28;;;4.60;;
34403;SDS011;23116;47.660;9.126;2023-02-28T08:55:06;4.53;;;4.07;;
34403;SDS011;23116;47.660;9.126;2023-02-28T08:57:54;5.57;;;4.72;;
34403;SDS011;23116;47.660;9.126;2023-02-28T09:00:41;6.65;;;4.90;;
34403;SDS011;23116;47.660;9.126;2023-02-28T09:03:28;5.47;;;4.68;;
34403;SDS011;23116;47.660;9.126;2023-02-28T09:06:15;6.72;;;4.47;;
34403;SDS011;23116;47.660;9.126;2023-02-28T09:09:04;5.28;;;4.78;;
34403;SDS011;23116;47.660;9.126;2023-02-28T09:11:54;6.47;;;5.28;;
34403;SDS011;23116;47.660;9.126;2023-02-28T09:14:42;5.20;;;4.70;;
34403;SDS011;23116;47.660;9.126;2023-02-28T09:17:29;7.45;;;5.28;;
34403;SDS011;23116;47.660;9.126;2023-02-28T09:20:16;5.10;;;4.65;;
34403;SDS011;23116;47.660;9.126;2023-02-28T09:23:03;5.63;;;5.03;;
34403;SDS011;23116;47.660;9.126;2023-02-28T09:25:51;7.75;;;5.22;;
34403;SDS011;23116;47.660;9.126;2023-02-28T09:28:39;6.75;;;5.50;;
34403;SDS011;23116;47.660;9.126;2023-02-28T09:31:27;7.53;;;5.47;;
34403;SDS011;23116;47.660;9.126;2023-02-28T09:34:14;8.27;;;5.43;;
34403;SDS011;23116;47.660;9.126;2023-02-28T09:37:02;5.82;;;5.22;;
34403;SDS011;23116;47.660;9.126;2023-02-28T09:39:49;5.13;;;4.63;;
34403;SDS011;23116;47.660;9.126;2023-02-28T09:42:36;5.32;;;4.82;;
34403;SDS011;23116;47.660;9.126;2023-02-28T09:45:29;4.57;;;4.18;;
34403;SDS011;23116;47.660;9.126;2023-02-28T09:48:23;5.50;;;4.95;;
34403;SDS011;23116;47.660;9.126;2023-02-28T09:54:32;6.95;;;5.07;;
34403;SDS011;23116;47.660;9.126;2023-02-28T10:03:29;5.60;;;5.10;;
34403;SDS011;23116;47.660;9.126;2023-02-28T10:06:36;6.60;;;5.32;;
34403;SDS011;23116;47.660;9.126;2023-02-28T10:09:36;5.78;;;5.28;;
34403;SDS011;23116;47.660;9.126;2023-02-28T10:12:23;5.32;;;4.63;;
34403;SDS011;23116;47.660;9.126;2023-02-28T10:15:13;6.25;;;4.72;;
34403;SDS011;23116;47.660;9.126;2023-02-28T10:18:06;5.95;;;5.45;;
34403;SDS011;23116;47.660;9.126;2023-02-28T10:20:58;6.45;;;5.68;;
34403;SDS011;23116;47.660;9.126;2023-02-28T10:23:46;4.65;;;4.15;;
34403;SDS011;23116;47.660;9.126;2023-02-28T10:26:33;6.28;;;5.68;;
34403;SDS011;23116;47.660;9.126;2023-02-28T10:29:21;6.32;;;5.00;;
34403;SDS011;23116;47.660;9.126;2023-02-28T10:32:08;6.25;;;5.55;;
34403;SDS011;23116;47.660;9.126;2023-02-28T10:37:56;5.28;;;4.78;;
34403;SDS011;23116;47.660;9.126;2023-02-28T10:40:46;8.57;;;5.70;;
34403;SDS011;23116;47.660;9.126;2023-02-28T10:43:33;6.78;;;5.70;;
34403;SDS011;23116;47.660;9.126;2023-02-28T10:46:21;6.68;;;6.07;;
34403;SDS011;23116;47.660;9.126;2023-02-28T10:49:29;6.70;;;6.00;;
34403;SDS011;23116;47.660;9.126;2023-02-28T10:52:32;5.85;;;5.28;;
34403;SDS011;23116;47.660;9.126;2023-02-28T10:55:25;6.63;;;6.03;;
34403;SDS011;23116;47.660;9.126;2023-02-28T10:58:22;6.38;;;5.78;;
34403;SDS011;23116;47.660;9.126;2023-02-28T11:01:14;7.22;;;5.00;;
34403;SDS011;23116;47.660;9.126;2023-02-28T11:07:19;6.63;;;5.38;;
34403;SDS011;23116;47.660;9.126;2023-02-28T11:10:16;5.80;;;5.07;;
34403;SDS011;23116;47.660;9.126;2023-02-28T11:13:06;6.20;;;5.70;;
34403;SDS011;23116;47.660;9.126;2023-02-28T11:16:06;6.10;;;5.60;;
34403;SDS011;23116;47.660;9.126;2023-02-28T11:18:56;6.63;;;5.28;;
34403;SDS011;23116;47.660;9.126;2023-02-28T11:21:48;6.70;;;6.00;;
34403;SDS011;23116;47.660;9.126;2023-02-28T11:24:49;5.82;;;5.00;;
34403;SDS011;23116;47.660;9.126;2023-02-28T11:30:37;4.72;;;4.32;;
34403;SDS011;23116;47.660;9.126;2023-02-28T11:33:27;4.22;;;3.83;;
34403;SDS011;23116;47.660;9.126;2023-02-28T11:36:29;5.38;;;4.82;;
34403;SDS011;23116;47.660;9.126;2023-02-28T11:39:17;6.07;;;5.45;;
34403;SDS011;23116;47.660;9.126;2023-02-28T11:45:51;6.47;;;5.88;;
34403;SDS011;23116;47.660;9.126;2023-02-28T11:52:06;6.65;;;6.05;;
34403;SDS011;23116;47.660;9.126;2023-02-28T11:55:18;6.80;;;6.18;;
34403;SDS011;23116;47.660;9.126;2023-02-28T12:04:35;7.47;;;5.97;;
34403;SDS011;23116;47.660;9.126;2023-02-28T12:12:41;7.03;;;6.32;;
34403;SDS011;23116;47.660;9.126;2023-02-28T12:15:37;10.35;;;6.68;;
34403;SDS011;23116;47.660;9.126;2023-02-28T12:19:19;6.20;;;5.60;;
34403;SDS011;23116;47.660;9.126;2023-02-28T12:28:48;8.25;;;6.57;;
34403;SDS011;23116;47.660;9.126;2023-02-28T13:38:17;9.48;;;7.55;;
34403;SDS011;23116;47.660;9.126;2023-02-28T13:44:22;8.82;;;7.40;;
34403;SDS011;23116;47.660;9.126;2023-02-28T13:50:14;7.38;;;6.68;;
34403;SDS011;23116;47.660;9.126;2023-02-28T13:56:37;7.43;;;6.72;;
34403;SDS011;23116;47.660;9.126;2023-02-28T14:00:13;6.93;;;6.10;;
34403;SDS011;23116;47.660;9.126;2023-02-28T14:06:17;7.45;;;6.72;;
34403;SDS011;23116;47.660;9.126;2023-02-28T14:09:37;8.63;;;7.72;;
34403;SDS011;23116;47.660;9.126;2023-02-28T14:18:41;8.65;;;7.75;;
34403;SDS011;23116;47.660;9.126;2023-02-28T14:31:46;7.78;;;7.03;;
34403;SDS011;23116;47.660;9.126;2023-02-28T14:35:16;8.10;;;7.30;;
34403;SDS011;23116;47.660;9.126;2023-02-28T14:38:17;8.18;;;7.38;;
34403;SDS011;23116;47.660;9.126;2023-02-28T14:41:23;11.90;;;9.20;;
34403;SDS011;23116;47.660;9.126;2023-02-28T14:47:14;10.57;;;9.48;;
34403;SDS011;23116;47.660;9.126;2023-02-28T14:50:02;10.68;;;9.32;;
34403;SDS011;23116;47.660;9.126;2023-02-28T14:52:54;18.63;;;9.82;;
34403;SDS011;23116;47.660;9.126;2023-02-28T14:55:43;9.82;;;8.82;;
34403;SDS011;23116;47.660;9.126;2023-02-28T14:58:32;10.60;;;9.18;;
34403;SDS011;23116;47.660;9.126;2023-02-28T15:01:21;12.60;;;10.38;;
34403;SDS011;23116;47.660;9.126;2023-02-28T15:04:12;10.07;;;9.07;;
34403;SDS011;23116;47.660;9.126;2023-02-28T15:07:18;13.10;;;10.02;;
34403;SDS011;23116;47.660;9.126;2023-02-28T15:13:10;10.05;;;9.05;;
34403;SDS011;23116;47.660;9.126;2023-02-28T15:16:04;10.67;;;9.07;;
34403;SDS011;23116;47.660;9.126;2023-02-28T15:19:21;8.98;;;8.07;;
34403;SDS011;23116;47.660;9.126;2023-02-28T15:22:15;8.25;;;7.30;;
34403;SDS011;23116;47.660;9.126;2023-02-28T15:25:09;9.00;;;8.10;;
34403;SDS011;23116;47.660;9.126;2023-02-28T15:28:03;8.45;;;7.20;;
34403;SDS011;23116;47.660;9.126;2023-02-28T15:30:51;7.60;;;6.45;;
34403;SDS011;23116;47.660;9.126;2023-02-28T15:33:51;10.52;;;8.70;;
34403;SDS011;23116;47.660;9.126;2023-02-28T15:36:41;10.65;;;9.15;;
34403;SDS011;23116;47.660;9.126;2023-02-28T15:39:28;9.20;;;7.60;;
34403;SDS011;23116;47.660;9.126;2023-02-28T15:42:18;9.07;;;7.80;;
34403;SDS011;23116;47.660;9.126;2023-02-28T15:45:26;10.43;;;9.15;;
34403;SDS011;23116;47.660;9.126;2023-02-28T15:48:51;9.05;;;8.00;;
34403;SDS011;23116;47.660;9.126;2023-02-28T15:51:41;8.60;;;7.63;;
34403;SDS011;23116;47.660;9.126;2023-02-28T15:54:29;7.50;;;6.80;;
34403;SDS011;23116;47.660;9.126;2023-02-28T15:57:21;8.18;;;7.45;;
34403;SDS011;23116;47.660;9.126;2023-02-28T16:00:15;7.88;;;6.40;;
34403;SDS011;23116;47.660;9.126;2023-02-28T16:03:22;8.52;;;7.63;;
34403;SDS011;23116;47.660;9.126;2023-02-28T16:06:32;8.50;;;7.65;;
34403;SDS011;23116;47.660;9.126;2023-02-28T16:09:29;9.52;;;8.63;;
34403;SDS011;23116;47.660;9.126;2023-02-28T16:12:16;9.77;;;8.73;;
34403;SDS011;23116;47.660;9.126;2023-02-28T16:15:24;9.48;;;8.07;;
34403;SDS011;23116;47.660;9.126;2023-02-28T16:18:16;10.63;;;8.40;;
34403;SDS011;23116;47.660;9.126;2023-02-28T16:21:03;9.00;;;8.05;;
34403;SDS011;23116;47.660;9.126;2023-02-28T16:23:50;8.60;;;7.70;;
34403;SDS011;23116;47.660;9.126;2023-02-28T16:26:37;9.95;;;9.05;;
34403;SDS011;23116;47.660;9.126;2023-02-28T16:29:27;8.45;;;7.55;;
34403;SDS011;23116;47.660;9.126;2023-02-28T16:32:20;7.68;;;6.85;;
34403;SDS011;23116;47.660;9.126;2023-02-28T16:35:09;9.10;;;8.13;;
34403;SDS011;23116;47.660;9.126;2023-02-28T16:37:56;8.48;;;7.60;;
34403;SDS011;23116;47.660;9.126;2023-02-28T16:40:43;9.90;;;8.90;;
34403;SDS011;23116;47.660;9.126;2023-02-28T16:43:30;9.60;;;8.60;;
34403;SDS011;23116;47.660;9.126;2023-02-28T16:46:18;8.68;;;7.78;;
34403;SDS011;23116;47.660;9.126;2023-02-28T16:49:09;9.32;;;6.63;;
34403;SDS011;23116;47.660;9.126;2023-02-28T16:51:58;10.80;;;7.47;;
34403;SDS011;23116;47.660;9.126;2023-02-28T16:54:44;7.93;;;7.13;;
34403;SDS011;23116;47.660;9.126;2023-02-28T16:57:31;9.20;;;8.27;;
34403;SDS011;23116;47.660;9.126;2023-02-28T17:00:18;10.20;;;8.23;;
34403;SDS011;23116;47.660;9.126;2023-02-28T17:03:08;8.57;;;7.68;;
34403;SDS011;23116;47.660;9.126;2023-02-28T17:06:19;9.55;;;7.85;;
34403;SDS011;23116;47.660;9.126;2023-02-28T17:09:16;10.00;;;8.65;;
34403;SDS011;23116;47.660;9.126;2023-02-28T17:12:08;8.93;;;8.05;;
34403;SDS011;23116;47.660;9.126;2023-02-28T17:14:56;9.23;;;8.25;;
34403;SDS011;23116;47.660;9.126;2023-02-28T17:17:43;10.68;;;8.45;;
34403;SDS011;23116;47.660;9.126;2023-02-28T17:20:31;8.93;;;8.02;;
34403;SDS011;23116;47.660;9.126;2023-02-28T17:23:17;9.93;;;8.27;;
34403;SDS011;23116;47.660;9.126;2023-02-28T17:26:04;9.68;;;7.95;;
34403;SDS011;23116;47.660;9.126;2023-02-28T17:28:52;9.02;;;7.68;;
34403;SDS011;23116;47.660;9.126;2023-02-28T17:31:41;8.15;;;6.93;;
34403;SDS011;23116;47.660;9.126;2023-02-28T17:34:27;9.73;;;8.07;;
34403;SDS011;23116;47.660;9.126;2023-02-28T17:37:15;8.65;;;7.82;;
34403;SDS011;23116;47.660;9.126;2023-02-28T17:40:02;9.10;;;8.13;;
34403;SDS011;23116;47.660;9.126;2023-02-28T17:42:49;8.98;;;8.07;;
34403;SDS011;23116;47.660;9.126;2023-02-28T17:45:37;7.85;;;6.60;;
34403;SDS011;23116;47.660;9.126;2023-02-28T17:48:24;9.82;;;8.27;;
34403;SDS011;23116;47.660;9.126;2023-02-28T17:51:12;8.82;;;7.90;;
34403;SDS011;23116;47.660;9.126;2023-02-28T17:54:00;7.25;;;6.47;;
34403;SDS011;23116;47.660;9.126;2023-02-28T17:56:47;7.88;;;6.88;;
34403;SDS011;23116;47.660;9.126;2023-02-28T17:59:33;10.20;;;9.05;;
34403;SDS011;23116;47.660;9.126;2023-02-28T18:02:20;10.55;;;9.45;;
34403;SDS011;23116;47.660;9.126;2023-02-28T18:05:08;8.95;;;7.38;;
34403;SDS011;23116;47.660;9.126;2023-02-28T18:07:55;9.35;;;8.13;;
34403;SDS011;23116;47.660;9.126;2023-02-28T18:10:42;8.60;;;7.65;;
34403;SDS011;23116;47.660;9.126;2023-02-28T18:13:30;9.05;;;7.68;;
34403;SDS011;23116;47.660;9.126;2023-02-28T18:16:17;8.65;;;7.35;;
34403;SDS011;23116;47.660;9.126;2023-02-28T18:19:06;8.73;;;7.60;;
34403;SDS011;23116;47.660;9.126;2023-02-28T18:21:59;9.80;;;8.80;;
34403;SDS011;23116;47.660;9.126;2023-02-28T18:24:46;8.30;;;7.50;;
34403;SDS011;23116;47.660;9.126;2023-02-28T18:27:33;9.02;;;8.13;;
34403;SDS011;23116;47.660;9.126;2023-02-28T18:30:20;10.77;;;9.65;;
34403;SDS011;23116;47.660;9.126;2023-02-28T18:33:08;9.57;;;8.57;;
34403;SDS011;23116;47.660;9.126;2023-02-28T18:35:55;10.02;;;7.60;;
34403;SDS011;23116;47.660;9.126;2023-02-28T18:38:42;8.25;;;7.10;;
34403;SDS011;23116;47.660;9.126;2023-02-28T18:41:30;11.07;;;8.60;;
34403;SDS011;23116;47.660;9.126;2023-02-28T18:44:17;8.55;;;7.40;;
34403;SDS011;23116;47.660;9.126;2023-02-28T18:47:03;11.25;;;9.02;;
34403;SDS011;23116;47.660;9.126;2023-02-28T18:49:51;11.63;;;9.63;;
34403;SDS011;23116;47.660;9.126;2023-02-28T18:52:38;10.88;;;8.57;;
34403;SDS011;23116;47.660;9.126;2023-02-28T18:55:25;10.88;;;9.77;;
34403;SDS011;23116;47.660;9.126;2023-02-28T18:58:12;9.40;;;7.10;;
34403;SDS011;23116;47.660;9.126;2023-02-28T19:01:02;10.95;;;8.85;;
34403;SDS011;23116;47.660;9.126;2023-02-28T19:04:03;9.07;;;8.18;;
34403;SDS011;23116;47.660;9.126;2023-02-28T19:06:50;9.85;;;8.48;;
34403;SDS011;23116;47.660;9.126;2023-02-28T19:09:37;10.25;;;8.88;;
34403;SDS011;23116;47.660;9.126;2023-02-28T19:12:24;8.75;;;7.85;;
34403;SDS011;23116;47.660;9.126;2023-02-28T19:15:11;9.43;;;7.95;;
34403;SDS011;23116;47.660;9.126;2023-02-28T19:17:58;9.77;;;8.77;;
34403;SDS011;23116;47.660;9.126;2023-02-28T19:20:45;9.35;;;7.43;;
34403;SDS011;23116;47.660;9.126;2023-02-28T19:23:32;10.02;;;8.93;;
34403;SDS011;23116;47.660;9.126;2023-02-28T19:26:20;9.90;;;8.60;;
34403;SDS011;23116;47.660;9.126;2023-02-28T19:29:09;8.05;;;7.25;;
34403;SDS011;23116;47.660;9.126;2023-02-28T19:31:56;11.35;;;8.15;;
34403;SDS011;23116;47.660;9.126;2023-02-28T19:34:43;9.55;;;8.55;;
34403;SDS011;23116;47.660;9.126;2023-02-28T19:37:30;10.80;;;8.23;;
34403;SDS011;23116;47.660;9.126;2023-02-28T19:40:17;9.48;;;8.32;;
34403;SDS011;23116;47.660;9.126;2023-02-28T19:43:04;11.48;;;9.45;;
34403;SDS011;23116;47.660;9.126;2023-02-28T19:45:52;9.18;;;7.45;;
34403;SDS011;23116;47.660;9.126;2023-02-28T19:48:39;9.85;;;8.75;;
34403;SDS011;23116;47.660;9.126;2023-02-28T19:51:27;11.85;;;8.85;;
34403;SDS011;23116;47.660;9.126;2023-02-28T19:54:13;10.70;;;8.73;;
34403;SDS011;23116;47.660;9.126;2023-02-28T19:57:00;9.80;;;8.45;;
34403;SDS011;23116;47.660;9.126;2023-02-28T19:59:49;9.27;;;8.27;;
34403;SDS011;23116;47.660;9.126;2023-02-28T20:02:36;10.35;;;8.25;;
34403;SDS011;23116;47.660;9.126;2023-02-28T20:05:23;9.55;;;8.32;;
34403;SDS011;23116;47.660;9.126;2023-02-28T20:08:10;8.43;;;6.85;;
34403;SDS011;23116;47.660;9.126;2023-02-28T20:11:02;9.70;;;8.13;;
34403;SDS011;23116;47.660;9.126;2023-02-28T20:13:54;10.73;;;9.00;;